Time;durP1;ratioP1;P1;durP2;ratioP2;P2;SDS_P1;SDS_P2;PMS_P1;PMS_P2;Temp;Humidity;BMP_temperature;BMP_pressure;BME280_temperature;BME280_humidity;BME280_pressure;Samples;Min_cycle;Max_cycle;Signal;HPM_P1;HPM_P2
2021/06/07 00:01:58;;;;;;;2.85;1.73;;;14.80;95.60;;;;;;5110103;28;20371;-38
2021/06/07 00:04:25;;;;;;;5.22;2.10;;;14.80;95.70;;;;;;5110648;28;20505;-40
2021/06/07 00:06:51;;;;;;;4.93;2.28;;;14.80;95.80;;;;;;5110561;28;20098;-42
2021/06/07 00:09:24;;;;;;;3.45;2.10;;;14.70;95.80;;;;;;5109944;28;20114;-40
2021/06/07 00:11:53;;;;;;;5.35;2.05;;;14.70;95.90;;;;;;5110531;28;20034;-40
2021/06/07 00:14:21;;;;;;;4.90;2.17;;;14.60;96.00;;;;;;5109798;28;20051;-43
2021/06/07 00:16:48;;;;;;;4.97;2.30;;;14.60;96.10;;;;;;5110428;28;20435;-43
2021/06/07 00:19:16;;;;;;;3.10;2.33;;;14.50;96.10;;;;;;5109976;28;20035;-43
2021/06/07 00:21:43;;;;;;;2.75;1.80;;;14.50;96.20;;;;;;5109951;28;20130;-41
2021/06/07 00:24:10;;;;;;;2.55;1.88;;;14.40;96.20;;;;;;5110228;28;20065;-40
2021/06/07 00:26:36;;;;;;;2.95;2.00;;;14.40;96.30;;;;;;5110089;28;20027;-40
2021/06/07 00:29:03;;;;;;;2.33;2.13;;;14.40;96.30;;;;;;5109620;28;20807;-40
2021/06/07 00:31:29;;;;;;;2.85;2.20;;;14.40;96.40;;;;;;5110377;28;20456;-40
2021/06/07 00:33:54;;;;;;;3.75;2.00;;;14.40;96.50;;;;;;5109358;28;20618;-40
2021/06/07 00:36:21;;;;;;;3.33;2.22;;;14.30;96.50;;;;;;5110277;28;20016;-40
2021/06/07 00:38:48;;;;;;;2.95;2.05;;;14.30;96.60;;;;;;5109925;28;20342;-40
2021/06/07 00:41:15;;;;;;;3.17;2.10;;;14.30;96.60;;;;;;5109365;28;20168;-41
2021/06/07 00:43:41;;;;;;;3.22;2.40;;;14.30;96.70;;;;;;5109794;28;20104;-40
2021/06/07 00:46:06;;;;;;;3.95;2.10;;;14.30;96.70;;;;;;5109350;28;20424;-41
2021/06/07 00:48:34;;;;;;;4.68;2.03;;;14.20;96.70;;;;;;5109873;28;20035;-41
2021/06/07 00:51:09;;;;;;;6.25;2.17;;;14.20;96.70;;;;;;5108388;28;20027;-40
2021/06/07 00:53:34;;;;;;;2.58;2.10;;;14.20;96.80;;;;;;5109925;28;20020;-39
2021/06/07 00:56:03;;;;;;;3.00;2.15;;;14.10;96.80;;;;;;5108615;28;20765;-39
2021/06/07 00:58:33;;;;;;;2.45;2.25;;;14.10;96.80;;;;;;5110052;28;20072;-41
2021/06/07 01:01:00;;;;;;;3.47;2.30;;;14.10;96.90;;;;;;5109072;28;20035;-40
2021/06/07 01:03:29;;;;;;;3.05;2.50;;;14.10;96.90;;;;;;5109261;28;20043;-40
2021/06/07 01:05:55;;;;;;;5.57;2.38;;;14.00;96.90;;;;;;5109320;28;20043;-40
2021/06/07 01:08:24;;;;;;;4.63;2.10;;;14.00;97.00;;;;;;5109147;28;20016;-39
2021/06/07 01:10:51;;;;;;;4.65;2.08;;;13.90;97.00;;;;;;5108657;28;20112;-38
2021/06/07 01:13:18;;;;;;;3.38;2.33;;;13.90;97.00;;;;;;5110003;28;20480;-39
2021/06/07 01:15:45;;;;;;;2.70;1.90;;;13.90;97.10;;;;;;5108868;28;20023;-40
2021/06/07 01:18:12;;;;;;;3.35;2.22;;;13.80;97.20;;;;;;5109384;28;20080;-40
2021/06/07 01:20:38;;;;;;;2.08;1.83;;;13.80;97.20;;;;;;5109142;28;20914;-36
2021/06/07 01:23:04;;;;;;;3.22;2.28;;;13.70;97.20;;;;;;5108252;28;20036;-41
2021/06/07 01:25:36;;;;;;;3.60;1.98;;;13.60;97.30;;;;;;5109717;28;20026;-41
2021/06/07 01:28:03;;;;;;;2.65;2.25;;;13.60;97.30;;;;;;5108141;28;20024;-40
2021/06/07 01:30:31;;;;;;;3.70;2.40;;;13.50;97.40;;;;;;5109245;28;20032;-40
2021/06/07 01:32:58;;;;;;;3.75;2.50;;;13.50;97.40;;;;;;5108299;28;20024;-39
2021/06/07 01:35:25;;;;;;;2.97;2.10;;;13.50;97.50;;;;;;5109487;28;20529;-40
2021/06/07 01:37:55;;;;;;;2.78;2.10;;;13.40;97.50;;;;;;5108044;28;20148;-40
2021/06/07 01:40:25;;;;;;;2.50;2.20;;;13.40;97.50;;;;;;5109410;28;20493;-40
2021/06/07 01:42:50;;;;;;;1.70;1.60;;;13.30;97.60;;;;;;5108835;28;20030;-39
2021/06/07 01:45:20;;;;;;;3.63;1.98;;;13.30;97.60;;;;;;5108387;27;20031;-40
2021/06/07 01:47:46;;;;;;;3.13;2.00;;;13.20;97.60;;;;;;5108660;28;20054;-41
2021/06/07 01:50:13;;;;;;;5.22;2.15;;;13.30;97.70;;;;;;5109120;28;20077;-39
2021/06/07 01:52:45;;;;;;;2.28;2.00;;;13.20;97.70;;;;;;5108516;28;20095;-40
2021/06/07 01:55:20;;;;;;;1.95;1.67;;;13.20;97.70;;;;;;5108846;28;20024;-39
2021/06/07 01:57:47;;;;;;;2.15;1.80;;;13.20;97.70;;;;;;5107913;28;20030;-41
2021/06/07 02:00:19;;;;;;;2.75;2.10;;;13.20;97.70;;;;;;5108957;28;20483;-40
2021/06/07 02:02:44;;;;;;;3.97;1.60;;;13.20;97.70;;;;;;5108042;28;20015;-42
2021/06/07 02:05:18;;;;;;;2.30;1.80;;;13.20;97.70;;;;;;5108122;28;20111;-42
2021/06/07 02:07:45;;;;;;;3.05;1.90;;;13.20;97.60;;;;;;5108764;28;20051;-39
2021/06/07 02:10:12;;;;;;;2.20;1.70;;;13.20;97.60;;;;;;5108398;28;20019;-41
2021/06/07 02:12:38;;;;;;;2.85;2.20;;;13.20;97.50;;;;;;5108179;28;20016;-43
2021/06/07 02:15:09;;;;;;;2.58;2.15;;;13.20;97.50;;;;;;5108474;28;20386;-40
2021/06/07 02:17:34;;;;;;;2.70;1.70;;;13.20;97.40;;;;;;5108390;28;20039;-37
2021/06/07 02:20:01;;;;;;;1.85;1.60;;;13.20;97.40;;;;;;5107869;28;20011;-40
2021/06/07 02:22:26;;;;;;;3.72;1.80;;;13.20;97.40;;;;;;5108447;28;20513;-41
2021/06/07 02:24:54;;;;;;;3.17;1.83;;;13.10;97.40;;;;;;5108291;28;20055;-38
2021/06/07 02:27:20;;;;;;;2.80;1.77;;;13.10;97.40;;;;;;5108366;28;20378;-40
2021/06/07 02:29:45;;;;;;;2.85;2.08;;;13.10;97.40;;;;;;5107717;28;20039;-39
2021/06/07 02:32:11;;;;;;;2.75;2.15;;;13.00;97.40;;;;;;5107832;28;20028;-40
2021/06/07 02:34:37;;;;;;;2.22;1.85;;;13.00;97.70;;;;;;5107998;28;20479;-39
2021/06/07 02:37:03;;;;;;;3.97;2.15;;;12.90;97.50;;;;;;5108415;28;20487;-40
2021/06/07 02:39:28;;;;;;;3.22;1.90;;;12.90;97.60;;;;;;5108062;28;20107;-40
2021/06/07 02:41:54;;;;;;;5.07;2.33;;;12.80;97.70;;;;;;5107473;28;20106;-39
2021/06/07 02:44:22;;;;;;;2.95;2.20;;;12.80;97.80;;;;;;5108443;28;20123;-39
2021/06/07 02:46:49;;;;;;;2.30;1.95;;;12.70;97.80;;;;;;5107791;28;20069;-40
2021/06/07 02:49:17;;;;;;;2.72;2.00;;;12.70;97.90;;;;;;5108050;28;20032;-40
2021/06/07 02:51:43;;;;;;;2.55;2.10;;;12.60;97.90;;;;;;5108324;28;20050;-40
2021/06/07 02:54:09;;;;;;;2.63;2.13;;;12.60;97.90;;;;;;5107633;28;20103;-40
2021/06/07 02:56:34;;;;;;;3.95;1.83;;;12.60;98.00;;;;;;5108481;28;20019;-41
2021/06/07 02:59:01;;;;;;;3.13;1.90;;;12.50;98.00;;;;;;5107738;28;20031;-40
2021/06/07 03:01:27;;;;;;;1.98;1.83;;;12.50;98.00;;;;;;5108201;28;20016;-40
2021/06/07 03:03:58;;;;;;;2.65;2.17;;;12.50;98.10;;;;;;5108090;28;20046;-42
2021/06/07 03:06:24;;;;;;;2.17;1.98;;;12.40;98.10;;;;;;5104675;28;20023;-41
2021/06/07 03:08:49;;;;;;;2.60;2.10;;;12.40;98.20;;;;;;5107536;28;20371;-43
2021/06/07 03:11:15;;;;;;;3.45;1.80;;;12.40;98.20;;;;;;5107429;28;20475;-41
2021/06/07 03:13:41;;;;;;;3.97;2.20;;;12.40;98.20;;;;;;5107895;28;20088;-40
2021/06/07 03:16:08;;;;;;;2.58;1.85;;;12.40;98.20;;;;;;5110036;28;20039;-40
2021/06/07 03:18:40;;;;;;;5.85;2.03;;;12.40;98.30;;;;;;5112141;28;20023;-39
2021/06/07 03:21:09;;;;;;;3.55;2.00;;;12.40;98.30;;;;;;5111667;28;20043;-41
2021/06/07 03:23:37;;;;;;;4.15;2.10;;;12.40;98.30;;;;;;5110859;28;20363;-39
2021/06/07 03:26:04;;;;;;;3.88;2.20;;;12.40;98.30;;;;;;5110933;28;20020;-42
2021/06/07 03:28:29;;;;;;;2.60;2.05;;;12.40;98.30;;;;;;5112194;28;20012;-40
2021/06/07 03:30:56;;;;;;;2.20;2.00;;;12.40;98.30;;;;;;5110120;28;20374;-41
2021/06/07 03:33:23;;;;;;;3.20;2.03;;;12.40;98.30;;;;;;5111930;28;20027;-40
2021/06/07 03:35:52;;;;;;;2.58;1.70;;;12.40;98.40;;;;;;5110790;28;20011;-40
2021/06/07 03:38:18;;;;;;;5.60;2.35;;;12.30;98.40;;;;;;5110596;28;20847;-40
2021/06/07 03:40:47;;;;;;;2.78;2.42;;;12.40;98.40;;;;;;5111042;28;20068;-39
2021/06/07 03:43:14;;;;;;;3.08;2.10;;;12.40;98.50;;;;;;5110819;28;20669;-40
2021/06/07 03:45:43;;;;;;;2.40;2.20;;;12.40;98.50;;;;;;5110822;28;20037;-39
2021/06/07 03:48:09;;;;;;;4.15;1.90;;;12.30;98.50;;;;;;5110905;28;20042;-42
2021/06/07 03:50:36;;;;;;;3.13;1.92;;;12.30;98.50;;;;;;5110669;28;20019;-40
2021/06/07 03:53:03;;;;;;;3.28;2.17;;;12.30;98.50;;;;;;5110463;28;20563;-43
2021/06/07 03:55:30;;;;;;;2.00;1.80;;;12.40;98.50;;;;;;5111736;28;20027;-41
2021/06/07 03:57:57;;;;;;;2.95;2.30;;;12.30;98.50;;;;;;5109586;28;20120;-41
2021/06/07 04:00:26;;;;;;;3.50;2.20;;;12.40;98.60;;;;;;5110956;28;20051;-40
2021/06/07 04:02:52;;;;;;;4.53;2.50;;;12.40;98.60;;;;;;5110657;28;20085;-40
2021/06/07 04:05:18;;;;;;;2.00;1.80;;;12.50;98.60;;;;;;5110261;28;20558;-41
2021/06/07 04:07:44;;;;;;;3.35;2.10;;;12.50;98.50;;;;;;5110515;28;20099;-40
2021/06/07 04:10:19;;;;;;;2.30;2.10;;;12.50;98.50;;;;;;5111475;28;20107;-39
2021/06/07 04:12:46;;;;;;;2.67;2.20;;;12.50;98.50;;;;;;5110194;28;20475;-42
2021/06/07 04:15:17;;;;;;;3.85;2.40;;;12.50;98.50;;;;;;5111464;28;20027;-40
2021/06/07 04:17:43;;;;;;;2.13;1.88;;;12.60;98.50;;;;;;5110448;28;20048;-39
2021/06/07 04:20:11;;;;;;;2.85;2.03;;;12.60;98.40;;;;;;5110308;27;20084;-41
2021/06/07 04:22:37;;;;;;;2.38;2.17;;;12.70;98.40;;;;;;5110902;28;20023;-41
2021/06/07 04:25:05;;;;;;;2.00;1.90;;;12.70;98.40;;;;;;5110342;28;20035;-43
2021/06/07 04:27:30;;;;;;;2.97;2.13;;;12.70;98.40;;;;;;5110292;28;20035;-41
2021/06/07 04:29:56;;;;;;;2.85;2.08;;;12.70;98.40;;;;;;5110614;28;20436;-42
2021/06/07 04:32:22;;;;;;;2.30;2.10;;;12.70;98.30;;;;;;5109767;28;20102;-40
2021/06/07 04:34:50;;;;;;;2.20;2.05;;;12.80;98.60;;;;;;5110091;28;20332;-40
2021/06/07 04:37:19;;;;;;;2.30;2.10;;;12.80;98.30;;;;;;5110044;28;20066;-41
2021/06/07 04:39:44;;;;;;;1.98;1.77;;;12.80;98.30;;;;;;5109722;28;20424;-40
2021/06/07 04:42:10;;;;;;;3.67;2.20;;;12.80;98.30;;;;;;5109912;28;20398;-41
2021/06/07 04:44:36;;;;;;;3.47;2.03;;;12.90;98.30;;;;;;5110198;28;20036;-41
2021/06/07 04:47:02;;;;;;;4.72;2.30;;;12.90;98.30;;;;;;5109178;28;20031;-40
2021/06/07 04:49:29;;;;;;;2.60;1.90;;;12.90;98.30;;;;;;5109333;28;20110;-41
2021/06/07 04:51:55;;;;;;;2.78;2.30;;;12.90;98.30;;;;;;5109849;28;20110;-41
2021/06/07 04:54:20;;;;;;;2.85;1.45;;;12.90;98.30;;;;;;5109368;28;20115;-41
2021/06/07 04:56:46;;;;;;;2.70;1.95;;;12.90;98.30;;;;;;5109700;28;20028;-41
2021/06/07 04:59:12;;;;;;;3.08;2.35;;;13.00;98.30;;;;;;5109086;28;20034;-41
2021/06/07 05:01:38;;;;;;;2.55;1.60;;;13.00;98.20;;;;;;5108892;28;20462;-41
2021/06/07 05:04:03;;;;;;;1.90;1.60;;;13.10;98.20;;;;;;5108694;28;20090;-40
2021/06/07 05:06:29;;;;;;;1.80;1.65;;;13.10;98.10;;;;;;5109595;28;20077;-40
2021/06/07 05:08:54;;;;;;;3.42;1.90;;;13.20;98.10;;;;;;5108629;28;20080;-40
2021/06/07 05:11:23;;;;;;;2.67;1.80;;;13.20;98.00;;;;;;5109272;28;20498;-40
2021/06/07 05:13:48;;;;;;;3.45;2.00;;;13.30;98.00;;;;;;5108509;28;20023;-40
2021/06/07 05:16:16;;;;;;;3.25;1.83;;;13.30;97.90;;;;;;5108634;28;20047;-39
2021/06/07 05:18:42;;;;;;;3.22;1.70;;;13.40;97.80;;;;;;5108428;28;20466;-41
2021/06/07 05:21:08;;;;;;;2.63;1.60;;;13.40;97.70;;;;;;5108709;28;20022;-41
2021/06/07 05:23:34;;;;;;;4.13;1.95;;;13.50;97.70;;;;;;5108700;28;20470;-40
2021/06/07 05:26:00;;;;;;;2.30;1.95;;;13.50;97.60;;;;;;5108006;28;20467;-41
2021/06/07 05:28:26;;;;;;;2.58;1.52;;;13.50;97.60;;;;;;5109029;28;20081;-40
2021/06/07 05:30:52;;;;;;;2.55;1.38;;;13.50;97.60;;;;;;5108319;28;20023;-41
2021/06/07 05:33:18;;;;;;;3.00;1.60;;;13.60;97.60;;;;;;5108732;28;20027;-42
2021/06/07 05:35:46;;;;;;;2.55;1.70;;;13.60;97.50;;;;;;5108375;28;20019;-40
2021/06/07 05:38:13;;;;;;;2.30;1.70;;;13.60;97.50;;;;;;5107920;28;20023;-41
2021/06/07 05:40:44;;;;;;;3.50;1.48;;;13.70;97.40;;;;;;5108806;28;20482;-42
2021/06/07 05:43:16;;;;;;;2.22;1.80;;;13.80;97.40;;;;;;5107949;28;20034;-42
2021/06/07 05:45:41;;;;;;;3.35;1.60;;;13.80;97.40;;;;;;5108435;28;20454;-38
2021/06/07 05:48:07;;;;;;;1.58;1.42;;;13.80;97.30;;;;;;5108500;28;20111;-40
2021/06/07 05:50:35;;;;;;;3.13;1.50;;;13.90;97.30;;;;;;5108064;28;20019;-40
2021/06/07 05:53:00;;;;;;;2.15;1.40;;;13.90;97.20;;;;;;5108415;28;20114;-41
2021/06/07 05:55:30;;;;;;;2.45;1.15;;;14.00;97.20;;;;;;5108678;28;20372;-43
2021/06/07 05:58:00;;;;;;;4.70;1.30;;;14.10;97.20;;;;;;5107674;28;20514;-41
2021/06/07 06:00:28;;;;;;;3.25;1.17;;;14.10;97.00;;;;;;5108508;28;20020;-41
2021/06/07 06:02:55;;;;;;;3.35;1.25;;;14.20;96.90;;;;;;5108145;28;20069;-41
2021/06/07 06:05:21;;;;;;;2.53;1.20;;;14.30;96.80;;;;;;5108133;28;20431;-38
2021/06/07 06:07:47;;;;;;;2.78;1.30;;;14.30;96.60;;;;;;5108409;28;20096;-40
2021/06/07 06:10:14;;;;;;;1.67;1.30;;;14.40;96.40;;;;;;5108196;28;20085;-38
2021/06/07 06:12:39;;;;;;;1.40;1.30;;;14.40;96.40;;;;;;5107728;28;20062;-42
2021/06/07 06:15:07;;;;;;;3.75;1.77;;;14.50;96.40;;;;;;5108312;28;20163;-40
2021/06/07 06:17:32;;;;;;;2.53;1.38;;;14.50;96.30;;;;;;5108138;28;20051;-41
2021/06/07 06:19:58;;;;;;;3.88;1.35;;;14.60;96.30;;;;;;5107402;28;20012;-40
2021/06/07 06:22:26;;;;;;;2.67;1.30;;;14.70;96.30;;;;;;5108476;28;20082;-42
2021/06/07 06:24:52;;;;;;;2.03;1.10;;;14.70;95.90;;;;;;5107465;28;20071;-38
2021/06/07 06:27:20;;;;;;;2.20;1.00;;;14.80;96.00;;;;;;5107721;28;20414;-39
2021/06/07 06:29:46;;;;;;;1.42;1.13;;;14.90;95.70;;;;;;5108663;28;20041;-39
2021/06/07 06:32:13;;;;;;;1.45;1.10;;;15.00;95.50;;;;;;5107306;28;20415;-41
2021/06/07 06:34:40;;;;;;;1.52;1.05;;;15.10;95.50;;;;;;5108296;28;20469;-44
2021/06/07 06:37:05;;;;;;;1.42;1.00;;;15.20;95.50;;;;;;5108252;28;20028;-41
2021/06/07 06:39:41;;;;;;;2.90;1.08;;;15.30;95.10;;;;;;5107478;28;20073;-40
2021/06/07 06:42:07;;;;;;;1.23;1.00;;;15.30;95.00;;;;;;5107961;28;20027;-40
2021/06/07 06:44:33;;;;;;;2.28;0.80;;;15.40;95.00;;;;;;5108161;28;20371;-37
2021/06/07 06:47:03;;;;;;;2.50;0.80;;;15.40;94.50;;;;;;5107098;28;20439;-39
2021/06/07 06:49:29;;;;;;;1.40;0.85;;;15.50;93.90;;;;;;5110635;28;20023;-40
2021/06/07 06:51:56;;;;;;;1.92;0.80;;;15.60;94.00;;;;;;5111220;28;20071;-40
2021/06/07 06:54:22;;;;;;;1.38;0.75;;;15.70;93.50;;;;;;5111621;28;20444;-39
2021/06/07 06:56:49;;;;;;;0.60;0.60;;;15.80;93.60;;;;;;5111771;28;20416;-40
2021/06/07 06:59:15;;;;;;;0.98;0.90;;;15.80;93.30;;;;;;5112202;28;20111;-40
2021/06/07 07:01:40;;;;;;;0.95;0.77;;;15.90;93.30;;;;;;5111344;28;20111;-41
2021/06/07 07:04:09;;;;;;;0.75;0.65;;;15.90;93.30;;;;;;5111105;28;20080;-41
2021/06/07 07:06:36;;;;;;;1.15;0.57;;;16.00;93.10;;;;;;5111094;28;20034;-40
2021/06/07 07:09:03;;;;;;;1.83;1.23;;;16.10;93.10;;;;;;5110627;28;20038;-40
2021/06/07 07:11:28;;;;;;;0.70;0.70;;;16.10;93.00;;;;;;5111943;28;20039;-40
2021/06/07 07:13:57;;;;;;;3.05;0.80;;;16.10;93.00;;;;;;5111118;28;20023;-39
2021/06/07 07:16:25;;;;;;;0.85;0.80;;;16.20;92.80;;;;;;5111153;28;20048;-39
2021/06/07 07:18:50;;;;;;;2.10;0.80;;;16.30;92.70;;;;;;5111074;28;20027;-39
2021/06/07 07:21:16;;;;;;;1.02;0.90;;;16.30;92.30;;;;;;5110665;28;20184;-44
2021/06/07 07:23:41;;;;;;;1.33;0.90;;;16.40;92.20;;;;;;5111146;28;20130;-41
2021/06/07 07:26:07;;;;;;;1.63;0.70;;;16.50;91.60;;;;;;5110775;28;20016;-40
2021/06/07 07:28:33;;;;;;;3.53;1.00;;;16.50;91.60;;;;;;5110584;28;20081;-40
2021/06/07 07:30:59;;;;;;;0.77;0.77;;;16.50;90.90;;;;;;5111387;28;20020;-40
2021/06/07 07:33:24;;;;;;;1.38;1.00;;;16.60;90.60;;;;;;5111315;28;20019;-40
2021/06/07 07:35:50;;;;;;;3.28;1.90;;;16.70;88.30;;;;;;5110842;28;20026;-43
2021/06/07 07:38:16;;;;;;;1.58;1.00;;;16.70;89.90;;;;;;5111338;28;20034;-40
2021/06/07 07:40:42;;;;;;;1.65;0.85;;;16.80;89.60;;;;;;5110900;28;20084;-40
2021/06/07 07:43:09;;;;;;;2.08;1.10;;;16.90;90.10;;;;;;5110655;28;20063;-40
2021/06/07 07:45:39;;;;;;;1.88;1.00;;;16.90;89.20;;;;;;5110045;28;20645;-40
2021/06/07 07:48:07;;;;;;;1.60;0.90;;;17.00;89.10;;;;;;5111256;27;20095;-43
2021/06/07 07:50:35;;;;;;;1.00;0.82;;;17.00;89.00;;;;;;5110570;27;20031;-42
2021/06/07 07:53:00;;;;;;;1.02;0.75;;;17.10;89.00;;;;;;5110216;28;20092;-40
2021/06/07 07:55:31;;;;;;;1.00;0.80;;;17.10;89.30;;;;;;5111032;28;20073;-38
2021/06/07 07:57:57;;;;;;;2.17;1.23;;;17.20;89.00;;;;;;5110583;28;20384;-39
2021/06/07 08:00:26;;;;;;;1.65;1.08;;;17.30;88.60;;;;;;5110049;28;20051;-42
2021/06/07 08:03:00;;;;;;;1.25;0.80;;;17.30;88.20;;;;;;5110755;28;20016;-40
2021/06/07 08:05:27;;;;;;;1.00;0.90;;;17.40;88.30;;;;;;5110324;28;20035;-39
2021/06/07 08:07:53;;;;;;;1.25;0.90;;;17.40;88.20;;;;;;5110564;28;20019;-40
2021/06/07 08:10:19;;;;;;;2.67;1.13;;;17.40;88.10;;;;;;5110326;28;20027;-41
2021/06/07 08:12:46;;;;;;;1.45;0.90;;;17.40;88.10;;;;;;5110194;28;20085;-39
2021/06/07 08:15:12;;;;;;;1.45;0.90;;;17.50;88.20;;;;;;5110363;28;20202;-41
2021/06/07 08:17:38;;;;;;;1.58;0.80;;;17.50;87.50;;;;;;5109996;28;20062;-38
2021/06/07 08:20:09;;;;;;;3.13;1.10;;;17.60;87.80;;;;;;5110057;28;20068;-40
2021/06/07 08:22:35;;;;;;;1.30;0.90;;;17.60;87.40;;;;;;5110582;28;20046;-41
2021/06/07 08:25:00;;;;;;;1.13;0.95;;;17.70;87.40;;;;;;5109397;28;20039;-39
2021/06/07 08:27:27;;;;;;;1.08;0.70;;;17.70;87.10;;;;;;5110197;28;20031;-40
2021/06/07 08:29:53;;;;;;;1.60;1.10;;;17.80;87.40;;;;;;5110050;28;20083;-40
2021/06/07 08:32:18;;;;;;;1.27;0.80;;;17.80;86.20;;;;;;5109868;28;20094;-42
2021/06/07 08:34:44;;;;;;;2.42;0.90;;;17.80;86.60;;;;;;5109767;28;20466;-40
2021/06/07 08:37:10;;;;;;;1.77;0.80;;;17.90;86.50;;;;;;5109886;28;20019;-41
2021/06/07 08:39:35;;;;;;;1.58;1.15;;;17.90;86.50;;;;;;5110085;28;20015;-40
2021/06/07 08:42:02;;;;;;;2.35;0.93;;;18.00;85.80;;;;;;5109024;28;20097;-40
2021/06/07 08:44:28;;;;;;;0.90;0.70;;;18.00;85.80;;;;;;5110293;28;20031;-40
2021/06/07 08:46:57;;;;;;;3.25;1.30;;;18.10;86.10;;;;;;5108741;28;20119;-39
2021/06/07 08:49:23;;;;;;;2.88;1.10;;;18.10;84.40;;;;;;5110334;28;20331;-40
2021/06/07 08:51:50;;;;;;;2.05;1.15;;;18.20;84.50;;;;;;5109795;28;20542;-41
2021/06/07 08:54:16;;;;;;;1.50;1.00;;;18.30;84.20;;;;;;5109192;28;20370;-42
2021/06/07 08:56:43;;;;;;;2.60;1.15;;;18.30;84.10;;;;;;5109397;28;20479;-42
2021/06/07 08:59:10;;;;;;;2.42;0.90;;;18.40;84.50;;;;;;5109800;28;20027;-39
2021/06/07 09:01:36;;;;;;;2.08;0.80;;;18.40;84.80;;;;;;5109365;28;20024;-39
2021/06/07 09:04:13;;;;;;;2.53;0.80;;;18.40;83.90;;;;;;5109654;28;20104;-44
2021/06/07 09:06:40;;;;;;;1.00;0.70;;;18.50;84.00;;;;;;5109013;28;20050;-39
2021/06/07 09:09:07;;;;;;;2.00;0.98;;;18.50;82.80;;;;;;5109165;28;20038;-43
2021/06/07 09:11:46;;;;;;;2.03;1.05;;;18.50;82.00;;;;;;5108953;28;20051;-40
2021/06/07 09:14:19;;;;;;;2.28;1.00;;;18.60;81.40;;;;;;5097404;28;20394;-34
2021/06/07 09:16:45;;;;;;;1.75;1.20;;;18.60;81.10;;;;;;5108440;27;20118;-40
2021/06/07 09:19:28;;;;;;;1.10;1.00;;;18.70;80.40;;;;;;5108816;28;20103;-38
2021/06/07 09:22:13;;;;;;;2.35;1.10;;;18.70;79.60;;;;;;5107642;28;20024;-41
2021/06/07 09:25:05;;;;;;;1.95;0.90;;;18.70;80.50;;;;;;5100050;28;20043;-42
2021/06/07 09:27:30;;;;;;;1.92;1.08;;;18.80;80.80;;;;;;5109132;28;20031;-41
2021/06/07 09:29:56;;;;;;;2.28;1.00;;;18.80;79.60;;;;;;5107532;28;20047;-39
2021/06/07 09:32:25;;;;;;;1.35;0.93;;;18.90;78.80;;;;;;5108528;28;20482;-39
2021/06/07 09:35:08;;;;;;;1.25;0.70;;;18.90;78.90;;;;;;5108407;28;20039;-40
2021/06/07 09:37:34;;;;;;;1.65;0.82;;;19.00;79.60;;;;;;5108610;28;20062;-40
2021/06/07 09:40:23;;;;;;;0.93;0.73;;;19.00;79.60;;;;;;5108287;28;20050;-40
2021/06/07 09:43:02;;;;;;;3.10;0.90;;;19.10;79.70;;;;;;5107255;28;20080;-40
2021/06/07 09:45:47;;;;;;;1.13;0.70;;;19.10;79.80;;;;;;5109010;28;20046;-39
2021/06/07 09:48:16;;;;;;;1.33;1.02;;;19.10;80.30;;;;;;5108264;28;20441;-40
2021/06/07 09:50:58;;;;;;;3.60;1.10;;;19.10;80.50;;;;;;5107579;28;20427;-42
2021/06/07 09:53:49;;;;;;;2.97;1.20;;;19.20;80.20;;;;;;5107635;28;20142;-40
2021/06/07 09:56:15;;;;;;;2.60;1.13;;;19.20;79.30;;;;;;5107741;28;20024;-43
2021/06/07 09:58:41;;;;;;;0.80;0.80;;;19.30;79.10;;;;;;5107671;28;20026;-39
2021/06/07 10:01:14;;;;;;;1.10;0.98;;;19.40;79.00;;;;;;5107811;28;20031;-39
2021/06/07 10:03:43;;;;;;;2.03;1.10;;;19.40;78.90;;;;;;5107408;28;20039;-40
2021/06/07 10:06:34;;;;;;;1.88;1.00;;;19.50;79.20;;;;;;5107460;28;20077;-39
2021/06/07 10:09:07;;;;;;;1.15;0.90;;;19.50;79.60;;;;;;5107441;28;20297;-39
2021/06/07 10:11:36;;;;;;;1.55;1.02;;;19.60;78.40;;;;;;5107710;28;20027;-40
2021/06/07 10:14:14;;;;;;;1.45;0.90;;;19.60;77.30;;;;;;5107637;28;20034;-39
2021/06/07 10:17:05;;;;;;;1.15;1.00;;;19.60;76.60;;;;;;5107504;28;20108;-39
2021/06/07 10:19:39;;;;;;;1.88;0.90;;;19.70;76.60;;;;;;5107085;28;20023;-41
2021/06/07 10:22:05;;;;;;;2.13;0.70;;;19.70;75.10;;;;;;5107357;28;20082;-40
2021/06/07 10:24:31;;;;;;;2.33;1.23;;;19.80;76.40;;;;;;5109365;28;20495;-42
2021/06/07 10:26:57;;;;;;;2.10;0.80;;;19.90;75.90;;;;;;5110867;28;20452;-40
2021/06/07 10:29:43;;;;;;;1.67;0.90;;;19.90;76.00;;;;;;5111378;28;20377;-41
2021/06/07 10:32:12;;;;;;;1.55;0.73;;;20.00;75.50;;;;;;5110997;28;20110;-41
2021/06/07 10:34:53;;;;;;;1.52;0.82;;;20.00;74.10;;;;;;5111359;28;20114;-41
2021/06/07 10:37:20;;;;;;;1.15;0.90;;;20.00;74.50;;;;;;5090648;28;20040;-38
2021/06/07 10:39:48;;;;;;;1.77;1.20;;;20.10;73.00;;;;;;5098192;28;20043;-43
2021/06/07 10:42:20;;;;;;;3.00;0.90;;;20.20;72.40;;;;;;5111115;28;20127;-40
2021/06/07 10:44:57;;;;;;;2.47;0.95;;;20.20;73.00;;;;;;5110875;28;20036;-37
2021/06/07 10:47:26;;;;;;;3.53;1.15;;;20.30;73.40;;;;;;5101478;28;20019;-40
2021/06/07 10:50:07;;;;;;;1.65;0.90;;;20.40;73.20;;;;;;5111113;28;20019;-40
2021/06/07 10:52:51;;;;;;;2.58;0.98;;;20.40;72.50;;;;;;5101123;28;20081;-41
2021/06/07 10:55:38;;;;;;;1.75;1.20;;;20.40;71.70;;;;;;5110807;28;20029;-40
2021/06/07 10:58:12;;;;;;;1.40;0.82;;;20.40;71.30;;;;;;5110475;28;20024;-40
2021/06/07 11:00:48;;;;;;;0.98;0.80;;;20.50;72.10;;;;;;5110960;28;20028;-38
2021/06/07 11:03:19;;;;;;;2.05;1.10;;;20.50;73.50;;;;;;5111267;28;20093;-41
2021/06/07 11:05:45;;;;;;;2.42;1.05;;;20.50;74.00;;;;;;5110540;28;20111;-40
2021/06/07 11:08:15;;;;;;;1.00;0.80;;;20.50;72.40;;;;;;5110168;28;20028;-41
2021/06/07 11:10:59;;;;;;;1.42;0.95;;;20.60;71.00;;;;;;5110700;28;20099;-42
2021/06/07 11:13:24;;;;;;;1.67;1.00;;;20.70;70.30;;;;;;5110866;28;20019;-40
2021/06/07 11:16:00;;;;;;;2.10;1.20;;;20.80;70.80;;;;;;5110094;28;20019;-41
2021/06/07 11:18:28;;;;;;;1.95;1.20;;;20.90;71.30;;;;;;5110894;28;20049;-41
2021/06/07 11:21:10;;;;;;;2.05;1.10;;;20.90;71.30;;;;;;5109717;28;20099;-39
2021/06/07 11:23:37;;;;;;;;;;;20.90;69.80;;;;;;5101881;28;20085;-38
2021/06/07 11:26:05;;;;;;;1.35;0.95;;;20.90;70.70;;;;;;5110720;28;19911;-39
2021/06/07 11:28:40;;;;;;;3.00;1.20;;;20.90;71.00;;;;;;5111185;28;20038;-39
2021/06/07 11:31:17;;;;;;;2.35;1.13;;;20.90;70.80;;;;;;5111069;28;20783;-42
2021/06/07 11:33:52;;;;;;;1.70;1.00;;;20.90;70.70;;;;;;5111021;27;20107;-41
2021/06/07 11:36:36;;;;;;;2.47;1.20;;;21.00;70.40;;;;;;5109304;28;20073;-40
2021/06/07 11:39:03;;;;;;;3.28;1.40;;;21.10;70.90;;;;;;5100055;28;20065;-40
2021/06/07 11:41:58;;;;;;;2.08;1.10;;;21.10;70.60;;;;;;5110676;28;20015;-40
2021/06/07 11:44:42;;;;;;;1.30;0.90;;;21.20;70.70;;;;;;5101557;28;20469;-41
2021/06/07 11:47:09;;;;;;;1.30;1.13;;;21.20;71.10;;;;;;5110905;28;20098;-41
2021/06/07 11:49:35;;;;;;;2.05;1.17;;;21.20;71.00;;;;;;5110176;28;20090;-41
2021/06/07 11:52:10;;;;;;;1.40;0.80;;;21.20;71.40;;;;;;5105978;27;20069;-40
2021/06/07 11:54:35;;;;;;;2.08;1.02;;;21.20;70.40;;;;;;5108827;27;20020;-39
2021/06/07 11:57:07;;;;;;;0.90;0.80;;;21.20;71.30;;;;;;5108974;27;20099;-39
2021/06/07 11:59:35;;;;;;;2.38;0.90;;;21.20;71.60;;;;;;5110763;27;20106;-40
2021/06/07 12:02:01;;;;;;;1.45;0.85;;;21.20;72.40;;;;;;5107972;28;20027;-39
2021/06/07 12:04:29;;;;;;;1.52;1.00;;;21.30;71.90;;;;;;5108164;28;20038;-39
2021/06/07 12:07:07;;;;;;;1.25;0.90;;;21.30;71.10;;;;;;5108535;28;20089;-40
2021/06/07 12:09:34;;;;;;;1.27;0.95;;;21.40;70.70;;;;;;5105740;28;20055;-40
2021/06/07 12:12:01;;;;;;;1.60;1.00;;;21.50;70.60;;;;;;5109459;28;20389;-41
2021/06/07 12:14:27;;;;;;;1.73;1.30;;;21.60;70.30;;;;;;5109228;28;20110;-40
2021/06/07 12:16:53;;;;;;;1.38;0.93;;;21.70;70.30;;;;;;5108533;28;20043;-40
2021/06/07 12:19:30;;;;;;;3.00;1.15;;;21.70;70.60;;;;;;5109566;28;20126;-41
2021/06/07 12:21:55;;;;;;;1.73;1.20;;;21.70;70.50;;;;;;5108923;28;20020;-39
2021/06/07 12:24:21;;;;;;;3.03;1.30;;;21.80;70.50;;;;;;5108854;28;20521;-40
2021/06/07 12:29:34;;;;;;;1.55;0.95;;;21.80;69.00;;;;;;5109524;28;20074;-40
2021/06/07 12:32:15;;;;;;;2.05;1.13;;;21.80;68.80;;;;;;5107650;28;20023;-41
2021/06/07 12:34:57;;;;;;;1.23;0.90;;;21.90;68.20;;;;;;5108771;28;20027;-40
2021/06/07 12:37:31;;;;;;;1.08;0.98;;;21.90;68.30;;;;;;5109193;28;20553;-40
2021/06/07 12:40:32;;;;;;;1.50;0.90;;;21.90;68.50;;;;;;5110352;27;20134;-38
2021/06/07 12:43:06;;;;;;;1.80;1.10;;;21.90;67.70;;;;;;5108350;28;20435;-40
2021/06/07 12:45:55;;;;;;;1.75;1.00;;;21.90;66.80;;;;;;5108983;28;20028;-41
2021/06/07 12:48:23;;;;;;;2.05;1.20;;;22.00;67.70;;;;;;5108017;28;20197;-38
2021/06/07 12:51:04;;;;;;;2.00;1.20;;;22.00;67.80;;;;;;5109032;28;20023;-41
2021/06/07 12:53:32;;;;;;;2.40;1.23;;;22.00;68.10;;;;;;5109323;28;20077;-40
2021/06/07 12:56:04;;;;;;;1.73;1.30;;;22.00;67.80;;;;;;5107880;28;20027;-41
2021/06/07 12:58:31;;;;;;;1.05;0.90;;;22.10;67.80;;;;;;5124552;27;20019;-40
2021/06/07 13:01:05;;;;;;;1.42;0.88;;;22.10;67.90;;;;;;5108871;27;20031;-40